• Join FlightAware (Why Join?)
  • Login
  • US Flag GB Flag 
05:26 EST


 

Airport Tracker/Info


-or-


 

Live Flight TrackerFlight Track Log ✈ VNR160 ✈ 30-Apr-2013 ✈ KPSP - KBDN

Flight Track Log - Related Links

Times and Time Zones

All times are in EDT time to prevent confusion due to time zone crossing. See the VNR160 flight status page for this flight to view local times or setup timezone preferences in your user account.

Time Position Orientation Groundspeed Altitude Reporting Facility
EDT Latitude Longitude Course Direction KTS MPH feet Rate Location/Type
11:07 33.8500 -116.5256 322° Northwest 159 183 34,000  Level Los Angeles Center
11:08 33.8853 -116.5583 322° Northwest 160 184 34,000  Level Los Angeles Center
11:09 33.9250 -116.5822 333° Northwest 162 186 34,000 -12,780 Level Los Angeles Center
11:10 33.9714 -116.5781 North 184 212 7,600 -11,820 Descending Los Angeles Center
11:11 34.0236 -116.5572 18° North 196 226 9,600 1,560 Climbing Los Angeles Center
11:12 34.0808 -116.5328 19° North 210 242 10,900 1,500 Climbing Los Angeles Center
11:14 34.1506 -116.5383 356° North 233 268 12,800 1,620 Climbing Los Angeles Center
11:15 34.2161 -116.5636 342° North 243 280 14,300 1,380 Climbing Los Angeles Center
11:16 34.2844 -116.5908 342° North 253 291 15,700 1,440 Climbing Los Angeles Center
11:17 34.3697 -116.6258 341° North 266 306 17,300 1,560 Climbing Los Angeles Center
11:18 34.3981 -116.7061 293° West 267 307 19,000 1,440 Climbing Los Angeles Center
11:19 34.4125 -116.7928 281° West 263 303 20,400 1,260 Climbing Los Angeles Center
11:20 34.4281 -116.8806 282° West 267 307 21,700 1,140 Climbing Los Angeles Center
11:21 34.4456 -116.9733 283° West 277 319 22,800 1,080 Climbing Los Angeles Center
11:22 34.4614 -117.0700 281° West 288 331 24,000 720 Climbing Los Angeles Center
11:23 34.4839 -117.1944 282° West 309 356 24,400 600 Climbing Los Angeles Center
11:24 34.5031 -117.3019 282° West 323 372 25,300 1,080 Climbing Los Angeles Center
11:25 34.5208 -117.4061 282° West 321 369 26,700 1,260 Climbing Los Angeles Center
11:26 34.5378 -117.5064 282° West 311 358 28,000 1,020 Climbing Los Angeles Center
11:27 34.5556 -117.6053 282° West 304 350 28,900 900 Climbing Los Angeles Center
11:28 34.5761 -117.7261 282° West 306 352 29,900 780 Climbing Los Angeles Center
11:29 34.5931 -117.8297 281° West 312 359 30,600 600 Climbing Los Angeles Center
11:30 34.6108 -117.9353 282° West 318 366 31,200 480 Climbing Los Angeles Center
11:31 34.6294 -118.0406 282° West 321 369 31,700 360 Climbing Los Angeles Center
11:32 34.6797 -118.1325 304° West 329 379 32,000 300 Climbing Los Angeles Center
11:33 34.7519 -118.2353 311° West 336 387 32,400 420 Climbing Los Angeles Center
11:34 34.8092 -118.3200 309° West 328 377 32,900 480 Climbing Los Angeles Center
11:35 34.8678 -118.4036 311° West 327 376 33,400 480 Climbing Los Angeles Center
11:36 34.9278 -118.4906 310° West 324 373 34,000 240 Climbing Los Angeles Center
11:37 34.9869 -118.5769 310° West 331 381 34,000  Level Los Angeles Center
11:38 35.0675 -118.6294 332° Northwest 335 386 34,000  Level Los Angeles Center
11:39 35.1786 -118.6567 349° North 339 390 34,000  Level Los Angeles Center
11:40 35.2731 -118.6803 348° North 345 397 34,000  Level Los Angeles Center
11:41 35.3669 -118.7039 348° North 346 398 34,000  Level Los Angeles Center
11:42 35.4606 -118.7278 348° North 345 397 34,000  Level Los Angeles Center
11:44 35.5547 -118.7511 349° North 346 398 34,000  Level Los Angeles Center
11:44 35.6481 -118.7756 348° North 346 398 34,000  Level Oakland Center
11:45 35.7400 -118.7981 349° North 340 391 34,000  Level Oakland Center
11:46 35.8350 -118.8225 348° North 346 398 34,000  Level Oakland Center
11:47 35.9264 -118.8456 348° North 338 389 34,000  Level Oakland Center
11:48 36.0208 -118.8711 348° North 344 396 34,000  Level Oakland Center
11:49 36.1133 -118.8939 349° North 342 394 34,000  Level Oakland Center
11:51 36.2069 -118.9181 348° North 343 395 34,000  Level Oakland Center
11:52 36.3014 -118.9428 348° North 346 398 34,000  Level Oakland Center
11:53 36.4133 -118.9719 348° North 344 396 34,000  Level Oakland Center
11:54 36.5058 -118.9967 348° North 341 392 34,000  Level Oakland Center
11:55 36.5997 -119.0206 348° North 344 396 34,000  Level Oakland Center
11:56 36.6933 -119.0444 348° North 345 397 34,000  Level Oakland Center
11:57 36.7869 -119.0689 348° North 344 396 34,000  Level Oakland Center
11:58 36.8806 -119.0939 348° North 345 397 34,000  Level Oakland Center
11:59 36.9742 -119.1183 348° North 345 397 34,000  Level Oakland Center
12:00 37.0686 -119.1431 348° North 346 398 34,000  Level Oakland Center
12:01 37.1822 -119.1725 348° North 349 402 34,000  Level Oakland Center
12:02 37.2756 -119.1981 348° North 345 397 34,000  Level Oakland Center
12:03 37.3689 -119.2228 348° North 345 397 34,000  Level Oakland Center
12:04 37.4628 -119.2472 348° North 344 396 34,000  Level Oakland Center
12:05 37.5547 -119.2722 348° North 339 390 34,000  Level Oakland Center
12:06 37.6575 -119.2992 348° North 338 389 34,000  Level Oakland Center
12:07 37.7492 -119.3228 348° North 338 389 34,000  Level Oakland Center
12:08 37.8408 -119.3481 348° North 338 389 34,000  Level Oakland Center
12:09 37.9319 -119.3733 348° North 337 388 34,000  Level Oakland Center
12:10 38.0239 -119.3978 348° North 338 389 34,000  Level Oakland Center
12:11 38.1144 -119.4231 348° North 334 384 34,000  Level Oakland Center
12:12 38.2222 -119.4508 349° North 340 391 34,000  Level Oakland Center
12:13 38.2989 -119.4722 348° North 339 390 34,000  Level Oakland Center
12:14 38.4083 -119.5028 348° North 336 387 34,000  Level Oakland Center
12:15 38.4972 -119.5264 348° North 336 387 34,000  Level Oakland Center
12:16 38.5886 -119.5511 348° North 333 383 34,000  Level Oakland Center
12:17 38.6800 -119.5767 348° North 335 386 34,000  Level Oakland Center
12:18 38.7717 -119.6014 348° North 333 383 34,000  Level Oakland Center
12:19 38.8639 -119.6275 348° North 337 388 34,000  Level Oakland Center
12:20 38.9533 -119.6519 348° North 331 381 34,000  Level Oakland Center
12:21 39.0422 -119.6769 348° North 327 376 34,000  Level Oakland Center
12:22 39.1303 -119.7022 347° North 325 374 34,000  Level Oakland Center
12:23 39.2361 -119.7311 348° North 323 372 34,000  Level Oakland Center
12:24 39.3233 -119.7558 348° North 321 369 34,000  Level Oakland Center
12:25 39.4111 -119.7806 348° North 322 371 34,000  Level Oakland Center
12:26 39.4969 -119.8042 348° North 317 365 34,000  Level Oakland Center
12:27 39.5839 -119.8297 347° North 317 365 34,000  Level Oakland Center
12:28 39.6703 -119.8528 348° North 317 365 34,000  Level Oakland Center
12:29 39.7572 -119.8775 348° North 318 366 34,000  Level Oakland Center
12:30 39.8425 -119.9031 347° North 315 362 34,000  Level Oakland Center
12:31 39.9275 -119.9269 348° North 313 360 34,000  Level Oakland Center
12:32 40.0128 -119.9519 347° North 313 360 34,000  Level Oakland Center
12:33 40.0956 -119.9761 347° North 306 352 34,000  Level Oakland Center
12:34 40.1972 -120.0064 347° North 310 357 34,000  Level Oakland Center
12:36 40.2808 -120.0308 347° North 309 356 34,000  Level Oakland Center
12:37 40.3653 -120.0547 348° North 309 356 34,000  Level Oakland Center
12:38 40.4489 -120.0794 347° North 309 356 34,000  Level Oakland Center
12:39 40.5328 -120.1033 348° North 307 353 34,000  Level Oakland Center
12:40 40.6200 -120.1269 348° North 315 362 34,000  Level Oakland Center
12:40 40.6681 -120.1433 345° North 303 349 34,000  Level Seattle Center
12:41 40.7486 -120.1675 347° North 297 342 34,000  Level Seattle Center
12:42 40.8333 -120.1903 349° North 305 351 34,000  Level Seattle Center
12:43 40.9156 -120.2133 348° North 303 349 34,000  Level Seattle Center
12:44 40.9956 -120.2389 346° North 300 345 34,000  Level Seattle Center
12:45 41.0772 -120.2622 348° North 300 345 34,000  Level Seattle Center
12:46 41.1600 -120.2858 348° North 303 349 34,000  Level Seattle Center
12:47 41.2417 -120.3106 347° North 302 348 34,000  Level Seattle Center
12:48 41.3397 -120.3397 347° North 301 346 34,000  Level Seattle Center
12:49 41.4208 -120.3653 347° North 301 346 34,000  Level Seattle Center
12:50 41.4853 -120.4233 326° Northwest 285 328 34,000  Level Seattle Center
12:51 41.5542 -120.4767 330° Northwest 287 330 34,000  Level Seattle Center
12:52 41.6233 -120.5308 330° Northwest 288 331 34,000  Level Seattle Center
12:53 41.6925 -120.5842 330° Northwest 287 330 34,000  Level Seattle Center
12:54 41.7622 -120.6381 330° Northwest 288 331 34,000  Level Seattle Center
12:55 41.8300 -120.6908 330° Northwest 283 326 34,000  Level Seattle Center
12:56 41.8989 -120.7444 330° Northwest 285 328 34,000  Level Seattle Center
12:57 41.9669 -120.8003 329° Northwest 286 329 34,000  Level Seattle Center
12:58 42.0383 -120.8461 335° Northwest 287 330 34,000  Level Seattle Center
13:00 42.1144 -120.8819 341° North 290 334 34,000  Level Seattle Center
13:01 42.1892 -120.9175 341° North 286 329 34,000 -240 Level Seattle Center
13:02 42.2800 -120.9606 341° North 288 331 33,600 -840 Descending Seattle Center
13:03 42.3581 -121.0067 336° Northwest 302 348 32,400 -1,200 Descending Seattle Center
13:04 42.4347 -121.0575 334° Northwest 307 353 31,200 -1,320 Descending Seattle Center
13:05 42.5139 -121.0919 342° North 304 350 29,800 -1,440 Descending Seattle Center
13:06 42.5986 -121.1094 351° North 309 356 28,300 -1,500 Descending Seattle Center
13:07 42.6831 -121.1244 353° North 307 353 26,800 -1,500 Descending Seattle Center
13:08 42.7650 -121.1403 352° North 297 342 25,300 -1,560 Descending Seattle Center
13:09 42.8392 -121.1692 344° North 278 320 23,700 -1,500 Descending Seattle Center
13:10 42.9122 -121.2058 340° North 278 320 22,300 -1,500 Descending Seattle Center
13:11 42.9889 -121.2406 342° North 286 329 20,700 -1,500 Descending Seattle Center
13:12 43.0611 -121.2756 341° North 280 322 19,300 -1,440 Descending Seattle Center
13:13 43.1328 -121.2947 349° North 270 311 17,800 -1,560 Descending Seattle Center
13:14 43.2228 -121.2858 North 271 312 16,200 -1,440 Descending Seattle Center
13:15 43.2997 -121.2786 North 275 316 14,900 -1,260 Descending Seattle Center
13:16 43.3758 -121.2694 North 275 316 13,700 -1,200 Descending Seattle Center
13:17 43.4478 -121.2631 North 263 303 12,500 -1,200 Descending Seattle Center
13:18 43.5208 -121.2550 North 263 303 11,300 -1,200 Descending Seattle Center
13:19 43.5964 -121.2506 North 266 306 10,100 -660 Descending Seattle Center
13:20 43.6697 -121.2417 North 266 306 10,000 -60 Descending Seattle Center
13:21 43.7439 -121.2344 North 266 306 10,000  Level Seattle Center
13:22 43.8167 -121.2244 North 265 305 10,000 -60 Level Seattle Center
13:23 43.8714 -121.2169 North 207 238 9,900 -120 Descending Seattle Center